Cheshunt, United Kingdom
Current Conditions -  °F | °C
As of 9:20 PM on Wednesday 26 Nov 2014 (Local Time) from EGLC Reporting Station
Drizzle Drizzle  
Wind Chill: 50°   Ceiling: 200
Heat Index: 50°   Visibility: 0.75mi
Dew Point: 50°   Wind: 3mph
Humidity: 100%   Direction: 60°ENE
Pressure: 29.77"   Gusts: NA
Location:  51.7°N, 0.03°W
Report Text: EGLC 262120Z 06003KT 1200 R09/P1500 R27/P1500 -DZ OVC002 10/10 Q1008
Loading
Personal Weather Stations






























Interactive Weather Map New forecast layout! Learn more

10-Day Weather Forecast

Advertisements
Track Severe Weather on mobile